createdAt,value
2023-02-01T00:01:51.842Z,98142.94
2023-02-01T00:04:20.419Z,98146.91
2023-02-01T00:06:49.128Z,98139.13
2023-02-01T00:09:18.023Z,98139.41
2023-02-01T00:11:48.361Z,98139.97
2023-02-01T00:14:17.115Z,98125.66
2023-02-01T00:16:45.988Z,98133.50
2023-02-01T00:19:17.483Z,98121.97
2023-02-01T00:21:46.558Z,98127.34
2023-02-01T00:24:15.210Z,98127.84
2023-02-01T00:26:46.343Z,98124.41
2023-02-01T00:29:20.212Z,98126.50
2023-02-01T00:31:51.446Z,98128.13
2023-02-01T00:34:21.604Z,98127.81
2023-02-01T00:36:50.914Z,98132.44
2023-02-01T00:39:19.634Z,98130.88
2023-02-01T00:41:48.167Z,98123.28
2023-02-01T00:44:18.493Z,98129.97
2023-02-01T00:46:47.185Z,98120.31
2023-02-01T00:49:16.234Z,98121.69
2023-02-01T00:51:44.767Z,98120.31
2023-02-01T00:54:13.243Z,98116.28
2023-02-01T00:56:41.803Z,98110.63
2023-02-01T00:59:13.032Z,98110.63
2023-02-01T01:01:43.040Z,98114.38
2023-02-01T01:04:11.610Z,98110.09
2023-02-01T01:06:40.227Z,98109.34
2023-02-01T01:09:10.017Z,98116.88
2023-02-01T01:11:40.746Z,98114.66
2023-02-01T01:14:11.621Z,98117.91
2023-02-01T01:16:40.393Z,98122.22
2023-02-01T01:19:10.323Z,98112.78
2023-02-01T01:21:38.970Z,98117.34
2023-02-01T01:24:07.994Z,98121.44
2023-02-01T01:26:36.637Z,98115.78
2023-02-01T01:29:05.700Z,98113.06
2023-02-01T01:31:34.594Z,98114.72
2023-02-01T01:34:03.578Z,98117.91
2023-02-01T01:36:33.973Z,98110.63
2023-02-01T01:39:02.645Z,98114.38
2023-02-01T01:41:34.250Z,98106.06
2023-02-01T01:44:59.159Z,98107.41
2023-02-01T01:47:33.630Z,98097.91
2023-02-01T01:50:04.217Z,98101.44
2023-02-01T01:52:35.647Z,98093.06
2023-02-01T01:55:04.507Z,98087.94
2023-02-01T01:57:39.409Z,98087.50
2023-02-01T02:00:13.425Z,98085.56
2023-02-01T02:02:47.162Z,98079.91
2023-02-01T02:05:19.991Z,98081.84
2023-02-01T02:07:57.903Z,98080.44
2023-02-01T02:10:47.204Z,98082.81
2023-02-01T02:13:18.486Z,98078.19
2023-02-01T02:16:02.407Z,98080.34
2023-02-01T02:18:46.322Z,98078.44
2023-02-01T02:21:37.383Z,98071.66
2023-02-01T02:24:45.799Z,98062.28
2023-02-01T02:27:48.757Z,98068.97
2023-02-01T02:30:48.168Z,98072.56
2023-02-01T02:34:00.069Z,98060.38
2023-02-01T02:36:48.254Z,98060.66
2023-02-01T02:39:33.225Z,98067.50
2023-02-01T02:42:31.988Z,98064.97
2023-02-01T02:45:28.169Z,98057.41
2023-02-01T02:48:05.464Z,98061.41
2023-02-01T02:50:58.231Z,98057.38
2023-02-01T02:53:51.764Z,98056.56
2023-02-01T02:56:40.903Z,98057.69
2023-02-01T02:59:34.321Z,98062.81
2023-02-01T03:02:20.530Z,98052.00
2023-02-01T03:04:53.839Z,98050.41
2023-02-01T03:08:04.049Z,98053.63
2023-02-01T03:10:49.425Z,98056.00
2023-02-01T03:13:29.488Z,98045.75
2023-02-01T03:16:06.599Z,98050.59
2023-02-01T03:18:44.364Z,98050.38
2023-02-01T03:21:20.698Z,98046.13
2023-02-01T03:23:55.141Z,98040.94
2023-02-01T03:26:29.173Z,98043.38
2023-02-01T03:29:11.104Z,98048.06
2023-02-01T03:31:40.136Z,98040.16
2023-02-01T03:34:09.065Z,98029.06
2023-02-01T03:36:48.319Z,98034.97
2023-02-01T03:39:26.332Z,98029.31
2023-02-01T03:42:00.983Z,98018.25
2023-02-01T03:44:34.866Z,98016.16
2023-02-01T03:47:10.676Z,98013.41
2023-02-01T03:49:45.229Z,98006.41
2023-02-01T03:52:18.905Z,98002.91
2023-02-01T03:54:50.519Z,97999.63
2023-02-01T03:57:29.198Z,98003.66
2023-02-01T04:00:09.295Z,98002.94
2023-02-01T04:02:42.916Z,98008.88
2023-02-01T04:05:11.744Z,98015.31
2023-02-01T04:07:46.019Z,98018.03
2023-02-01T04:10:19.322Z,98006.69
2023-02-01T04:12:48.409Z,98015.31
2023-02-01T04:15:17.274Z,98008.63
2023-02-01T04:17:45.798Z,98012.91
2023-02-01T04:20:14.607Z,98007.75
2023-02-01T04:22:43.183Z,98014.84
2023-02-01T04:25:11.903Z,98006.91
2023-02-01T04:27:41.887Z,98006.34
2023-02-01T04:30:12.345Z,97998.59
2023-02-01T04:32:41.757Z,98012.34
2023-02-01T04:35:12.765Z,98008.63
2023-02-01T04:37:41.469Z,98011.06
2023-02-01T04:40:12.090Z,97999.69
2023-02-01T04:42:41.935Z,97998.34
2023-02-01T04:45:11.494Z,97984.03
2023-02-01T04:47:40.203Z,97979.63
2023-02-01T04:50:11.485Z,97978.88
2023-02-01T04:52:40.221Z,97973.97
2023-02-01T04:55:09.974Z,97968.91
2023-02-01T04:57:39.747Z,97964.06
2023-02-01T05:00:12.720Z,97968.59
2023-02-01T05:02:41.278Z,97971.19
2023-02-01T05:05:10.943Z,97962.88
2023-02-01T05:07:39.521Z,97960.59
2023-02-01T05:10:09.829Z,97952.75
2023-02-01T05:12:56.143Z,97970.06
2023-02-01T05:15:26.226Z,97965.81
2023-02-01T05:17:54.736Z,97951.44
2023-02-01T05:20:23.742Z,97957.56
2023-02-01T05:22:52.590Z,97955.81
2023-02-01T05:25:21.169Z,97964.50
2023-02-01T05:27:49.791Z,97965.78
2023-02-01T05:30:18.990Z,97961.94
2023-02-01T05:32:52.460Z,97950.06
2023-02-01T05:35:21.859Z,97933.28
2023-02-01T05:37:51.132Z,97938.81
2023-02-01T05:40:19.951Z,97935.50
2023-02-01T05:42:48.502Z,97935.81
2023-02-01T05:45:17.332Z,97931.63
2023-02-01T05:47:45.875Z,97945.22
2023-02-01T05:50:16.153Z,97928.75
2023-02-01T05:52:44.862Z,97923.03
2023-02-01T05:55:13.530Z,97916.28
2023-02-01T05:57:42.138Z,97926.31
2023-02-01T06:00:12.931Z,97917.88
2023-02-01T06:02:41.700Z,97907.53
2023-02-01T06:05:10.854Z,97912.53
2023-02-01T06:07:40.844Z,97914.25
2023-02-01T06:10:11.943Z,97913.53
2023-02-01T06:12:40.786Z,97911.94
2023-02-01T06:15:10.932Z,97914.94
2023-02-01T06:17:40.890Z,97910.59
2023-02-01T06:20:12.195Z,97916.41
2023-02-01T06:22:43.116Z,97911.56
2023-02-01T06:25:12.720Z,97912.16
2023-02-01T06:27:41.433Z,97911.84
2023-02-01T06:30:11.918Z,97915.75
2023-02-01T06:32:41.333Z,97914.09
2023-02-01T06:35:12.332Z,97914.94
2023-02-01T06:37:42.232Z,97918.47
2023-02-01T06:40:12.666Z,97904.97
2023-02-01T06:42:41.147Z,97906.09
2023-02-01T06:45:11.140Z,97911.88
2023-02-01T06:47:39.667Z,97916.69
2023-02-01T06:50:09.813Z,97918.28
2023-02-01T06:52:38.493Z,97916.50
2023-02-01T06:55:09.662Z,97910.63
2023-02-01T06:57:38.238Z,97916.16
2023-02-01T07:00:08.499Z,97905.88
2023-02-01T07:02:37.041Z,97914.78
2023-02-01T07:05:05.980Z,97914.56
2023-02-01T07:07:34.716Z,97914.97
2023-02-01T07:10:03.293Z,97920.66
2023-02-01T07:12:33.390Z,97935.22
2023-02-01T07:15:02.679Z,97937.94
2023-02-01T07:17:31.504Z,97949.22
2023-02-01T07:20:00.848Z,97954.16
2023-02-01T07:22:30.114Z,97954.16
2023-02-01T07:24:58.629Z,97951.22
2023-02-01T07:27:27.499Z,97966.06
2023-02-01T07:29:57.690Z,97968.31
2023-02-01T07:32:26.371Z,97988.38
2023-02-01T07:34:54.914Z,97988.19
2023-02-01T07:37:24.931Z,97990.38
2023-02-01T07:39:54.044Z,97975.34
2023-02-01T07:42:22.948Z,97979.13
2023-02-01T07:44:52.845Z,97982.84
2023-02-01T07:47:25.070Z,97971.28
2023-02-01T07:49:57.004Z,97964.25
2023-02-01T07:52:25.770Z,97959.03
2023-02-01T07:54:57.302Z,97959.28
2023-02-01T07:57:25.938Z,97966.84
2023-02-01T08:00:12.000Z,97966.75
2023-02-01T08:02:45.289Z,97960.53
2023-02-01T08:05:13.876Z,97962.84
2023-02-01T08:07:42.703Z,97953.97
2023-02-01T08:10:12.571Z,97953.38
2023-02-01T08:12:42.153Z,97953.34
2023-02-01T08:15:12.050Z,97959.53
2023-02-01T08:17:40.763Z,97966.75
2023-02-01T08:20:14.639Z,97963.78
2023-02-01T08:22:44.881Z,97969.22
2023-02-01T08:25:15.509Z,97965.72
2023-02-01T08:27:44.367Z,97961.00
2023-02-01T08:30:15.377Z,97968.50
2023-02-01T08:32:44.341Z,97976.31
2023-02-01T08:35:17.509Z,97959.22
2023-02-01T08:37:46.173Z,97959.88
2023-02-01T08:40:15.699Z,97947.41
2023-02-01T08:42:53.372Z,97942.00
2023-02-01T08:45:24.827Z,97948.75
2023-02-01T08:47:53.993Z,97946.78
2023-02-01T08:50:26.380Z,97947.41
2023-02-01T08:52:55.593Z,97947.34
2023-02-01T08:55:24.116Z,97964.34
2023-02-01T08:57:52.562Z,97949.53
2023-02-01T09:00:21.957Z,97945.28
2023-02-01T09:02:50.854Z,97940.97
2023-02-01T09:05:23.187Z,97944.59
2023-02-01T09:07:53.161Z,97937.59
2023-02-01T09:10:34.325Z,97942.53
2023-02-01T09:13:04.136Z,97937.72
2023-02-01T09:15:33.817Z,97931.41
2023-02-01T09:18:02.620Z,97938.06
2023-02-01T09:20:31.162Z,97945.59
2023-02-01T09:23:01.201Z,97965.47
2023-02-01T09:25:29.786Z,97960.75
2023-02-01T09:27:58.342Z,97963.34
2023-02-01T09:30:27.202Z,97976.00
2023-02-01T09:32:56.829Z,97968.31
2023-02-01T09:35:25.289Z,97972.38
2023-02-01T09:37:55.576Z,97972.84
2023-02-01T09:40:26.211Z,97978.34
2023-02-01T09:43:14.797Z,97974.94
2023-02-01T09:45:57.714Z,97967.13
2023-02-01T09:48:33.458Z,97972.06
2023-02-01T09:51:06.942Z,97978.84
2023-02-01T09:53:41.349Z,97989.13
2023-02-01T09:56:22.747Z,97974.31
2023-02-01T09:59:01.306Z,97986.97
2023-02-01T10:01:31.320Z,97980.88
2023-02-01T10:04:08.545Z,97980.75
2023-02-01T10:06:58.220Z,97981.28
2023-02-01T10:10:03.035Z,97983.88
2023-02-01T10:13:10.152Z,97981.50
2023-02-01T10:16:04.684Z,97980.25
2023-02-01T10:19:26.261Z,97979.25
2023-02-01T10:22:02.746Z,97976.97
2023-02-01T10:24:42.764Z,97976.59
2023-02-01T10:27:22.830Z,97980.75
2023-02-01T10:30:00.652Z,97978.53
2023-02-01T10:32:35.416Z,97969.06
2023-02-01T10:35:15.195Z,97967.41
2023-02-01T10:37:46.728Z,97961.38
2023-02-01T10:40:23.105Z,97966.88
2023-02-01T10:42:54.846Z,97965.28
2023-02-01T10:45:29.345Z,97958.63
2023-02-01T10:48:02.114Z,97957.94
2023-02-01T10:50:40.290Z,97949.63
2023-02-01T10:53:17.176Z,97955.56
2023-02-01T10:55:54.061Z,97983.91
2023-02-01T10:58:29.370Z,98001.84
2023-02-01T11:01:04.314Z,98007.81
2023-02-01T11:03:44.298Z,98003.28
2023-02-01T11:06:24.080Z,98005.22
2023-02-01T11:08:55.826Z,98022.28
2023-02-01T11:11:25.835Z,98010.28
2023-02-01T11:13:57.889Z,98016.69
2023-02-01T11:16:37.451Z,98017.97
2023-02-01T11:19:07.675Z,98007.91
2023-02-01T11:21:39.505Z,98012.50
2023-02-01T11:24:23.775Z,98007.34
2023-02-01T11:26:56.645Z,97995.63
2023-02-01T11:29:30.723Z,97986.91
2023-02-01T11:32:02.107Z,97974.94
2023-02-01T11:34:38.684Z,97979.91
2023-02-01T11:37:19.362Z,97969.09
2023-02-01T11:39:58.258Z,97971.72
2023-02-01T11:42:29.179Z,97964.31
2023-02-01T11:45:22.851Z,97961.88
2023-02-01T11:47:56.052Z,97958.66
2023-02-01T11:50:37.880Z,97942.97
2023-02-01T11:53:26.445Z,97945.94
2023-02-01T11:56:16.822Z,97930.38
2023-02-01T11:59:19.680Z,97920.53
2023-02-01T12:02:14.164Z,97925.78
2023-02-01T12:05:20.962Z,97919.13
2023-02-01T12:08:08.286Z,97924.63
2023-02-01T12:10:58.146Z,97915.28
2023-02-01T12:13:49.625Z,97922.06
2023-02-01T12:16:32.072Z,97920.41
2023-02-01T12:19:31.817Z,97911.72
2023-02-01T12:22:23.634Z,97908.03
2023-02-01T12:25:21.501Z,97911.38
2023-02-01T12:28:25.857Z,97907.78
2023-02-01T12:31:17.694Z,97912.91
2023-02-01T12:34:11.202Z,97907.31
2023-02-01T12:36:52.845Z,97914.53
2023-02-01T12:39:33.274Z,97910.13
2023-02-01T12:42:14.981Z,97918.44
2023-02-01T12:44:52.899Z,97913.97
2023-02-01T12:47:31.788Z,97900.25
2023-02-01T12:50:08.658Z,97905.88
2023-02-01T12:52:44.662Z,97890.84
2023-02-01T12:55:24.835Z,97905.38
2023-02-01T12:57:59.273Z,97916.59
2023-02-01T13:00:38.152Z,97916.19
2023-02-01T13:03:24.737Z,97928.88
2023-02-01T13:06:03.656Z,97931.34
2023-02-01T13:08:46.248Z,97919.09
2023-02-01T13:11:25.056Z,97921.72
2023-02-01T13:14:04.921Z,97921.56
2023-02-01T13:16:39.423Z,97918.34
2023-02-01T13:19:22.344Z,97909.59
2023-02-01T13:21:57.378Z,97915.81
2023-02-01T13:24:40.157Z,97897.09
2023-02-01T13:27:14.798Z,97899.97
2023-02-01T13:29:55.613Z,97885.81
2023-02-01T13:33:52.529Z,97900.13
2023-02-01T13:36:18.903Z,97884.94
2023-02-01T13:39:30.932Z,97893.97
2023-02-01T13:42:04.178Z,97894.72
2023-02-01T13:44:41.659Z,97888.94
2023-02-01T13:47:24.917Z,97898.47
2023-02-01T13:49:56.004Z,97894.88
2023-02-01T13:52:38.731Z,97893.66
2023-02-01T13:55:31.667Z,97896.19
2023-02-01T13:58:21.769Z,97887.19
2023-02-01T14:00:53.064Z,97892.88
2023-02-01T14:03:24.774Z,97893.25
2023-02-01T14:06:20.035Z,97899.59
2023-02-01T14:09:17.698Z,97894.56
2023-02-01T14:11:50.758Z,97903.16
2023-02-01T14:14:48.090Z,97902.69
2023-02-01T14:17:39.135Z,97890.13
2023-02-01T14:20:51.981Z,97904.13
2023-02-01T14:23:35.207Z,97900.59
2023-02-01T14:26:19.466Z,97905.66
2023-02-01T14:28:59.724Z,97909.59
2023-02-01T14:31:54.458Z,97915.00
2023-02-01T14:34:36.703Z,97903.19
2023-02-01T14:37:09.068Z,97906.66
2023-02-01T14:39:59.487Z,97908.66
2023-02-01T14:42:32.977Z,97904.25
2023-02-01T14:45:52.708Z,97904.59
2023-02-01T14:48:47.187Z,97915.22
2023-02-01T14:51:21.357Z,97915.16
2023-02-01T14:53:52.283Z,97921.91
2023-02-01T14:56:22.897Z,97920.44
2023-02-01T14:58:59.692Z,97919.97
2023-02-01T15:01:32.043Z,97914.72
2023-02-01T15:04:06.662Z,97913.56
2023-02-01T15:06:42.014Z,97900.69
2023-02-01T15:09:16.695Z,97907.69
2023-02-01T15:12:04.946Z,97915.56
2023-02-01T15:14:36.935Z,97916.91
2023-02-01T15:17:20.676Z,97904.06
2023-02-01T15:19:56.595Z,97898.88
2023-02-01T15:22:29.023Z,97892.53
2023-02-01T15:25:00.934Z,97890.66
2023-02-01T15:27:32.218Z,97895.72
2023-02-01T15:30:08.722Z,97893.00
2023-02-01T15:32:40.823Z,97895.13
2023-02-01T15:35:39.215Z,97881.53
2023-02-01T15:38:42.119Z,97883.03
2023-02-01T15:41:16.680Z,97883.59
2023-02-01T15:44:04.658Z,97897.59
2023-02-01T15:46:38.099Z,97895.47
2023-02-01T15:49:21.345Z,97887.22
2023-02-01T15:51:50.890Z,97880.03
2023-02-01T15:54:27.824Z,97891.06
2023-02-01T15:56:58.530Z,97899.66
2023-02-01T15:59:34.182Z,97899.16
2023-02-01T16:02:03.111Z,97902.00
2023-02-01T16:04:34.041Z,97899.03
2023-02-01T16:07:05.853Z,97898.88
2023-02-01T16:09:42.531Z,97908.50
2023-02-01T16:12:32.045Z,97902.00
2023-02-01T16:15:00.600Z,97905.00
2023-02-01T16:17:29.164Z,97902.94
2023-02-01T16:19:58.199Z,97897.44
2023-02-01T16:22:27.114Z,97903.53
2023-02-01T16:24:58.032Z,97899.25
2023-02-01T16:27:26.634Z,97902.25
2023-02-01T16:29:56.874Z,97902.91
2023-02-01T16:32:27.575Z,97885.03
2023-02-01T16:34:58.432Z,97896.56
2023-02-01T16:37:29.077Z,97902.31
2023-02-01T16:39:59.253Z,97898.59
2023-02-01T16:42:29.510Z,97905.09
2023-02-01T16:44:58.216Z,97907.47
2023-02-01T16:47:26.953Z,97901.13
2023-02-01T16:49:55.543Z,97901.56
2023-02-01T16:52:28.649Z,97899.84
2023-02-01T16:54:58.662Z,97905.28
2023-02-01T16:57:28.726Z,97900.28
2023-02-01T16:59:57.823Z,97908.00
2023-02-01T17:02:26.495Z,97911.47
2023-02-01T17:04:55.212Z,97898.59
2023-02-01T17:07:24.372Z,97916.31
2023-02-01T17:09:52.843Z,97916.25
2023-02-01T17:12:26.965Z,97918.25
2023-02-01T17:14:55.949Z,97916.19
2023-02-01T17:17:38.483Z,97908.31
2023-02-01T17:20:09.445Z,97916.69
2023-02-01T17:22:38.108Z,97907.88
2023-02-01T17:25:16.870Z,97910.91
2023-02-01T17:27:47.037Z,97886.34
2023-02-01T17:30:16.792Z,97886.00
2023-02-01T17:32:46.839Z,97896.63
2023-02-01T17:35:26.226Z,97891.22
2023-02-01T17:37:55.873Z,97885.69
2023-02-01T17:40:24.571Z,97891.44
2023-02-01T17:42:57.826Z,97879.78
2023-02-01T17:45:37.828Z,97890.50
2023-02-01T17:48:08.725Z,97866.91
2023-02-01T17:50:39.659Z,97876.84
2023-02-01T17:53:10.013Z,97872.38
2023-02-01T17:55:43.947Z,97870.38
2023-02-01T17:58:16.787Z,97861.41
2023-02-01T18:00:47.771Z,97862.84
2023-02-01T18:03:25.314Z,97865.22
2023-02-01T18:05:56.299Z,97867.78
2023-02-01T18:08:28.410Z,97865.72
2023-02-01T18:11:00.919Z,97879.91
2023-02-01T18:13:33.071Z,97863.63
2023-02-01T18:16:02.240Z,97869.63
2023-02-01T18:18:34.075Z,97856.22
2023-02-01T18:21:03.126Z,97864.44
2023-02-01T18:23:31.917Z,97861.75
2023-02-01T18:26:01.201Z,97867.78
2023-02-01T18:28:31.422Z,97858.81
2023-02-01T18:31:03.106Z,97846.00
2023-02-01T18:33:31.855Z,97849.84
2023-02-01T18:36:00.460Z,97854.34
2023-02-01T18:38:28.940Z,97861.47
2023-02-01T18:41:01.059Z,97860.28
2023-02-01T18:43:31.053Z,97859.06
2023-02-01T18:45:59.771Z,97856.22
2023-02-01T18:48:28.282Z,97845.72
2023-02-01T18:50:57.887Z,97844.25
2023-02-01T18:53:27.475Z,97859.66
2023-02-01T18:55:56.629Z,97841.75
2023-02-01T18:58:26.420Z,97853.00
2023-02-01T19:00:59.754Z,97847.31
2023-02-01T19:03:28.869Z,97848.41
2023-02-01T19:05:59.360Z,97849.94
2023-02-01T19:08:28.049Z,97840.97
2023-02-01T19:10:56.832Z,97837.97
2023-02-01T19:13:28.395Z,97849.13
2023-02-01T19:16:00.593Z,97850.13
2023-02-01T19:18:29.307Z,97845.00
2023-02-01T19:21:05.269Z,97848.72
2023-02-01T19:23:34.235Z,97854.06
2023-02-01T19:26:03.111Z,97835.34
2023-02-01T19:28:31.742Z,97837.47
2023-02-01T19:31:06.666Z,97839.81
2023-02-01T19:33:36.537Z,97841.91
2023-02-01T19:36:09.831Z,97833.91
2023-02-01T19:38:39.098Z,97842.00
2023-02-01T19:41:07.943Z,97844.84
2023-02-01T19:43:36.932Z,97840.25
2023-02-01T19:46:07.411Z,97834.91
2023-02-01T19:48:36.308Z,97832.50
2023-02-01T19:51:05.221Z,97829.53
2023-02-01T19:53:34.041Z,97828.66
2023-02-01T19:56:02.834Z,97832.44
2023-02-01T19:58:31.444Z,97840.25
2023-02-01T20:01:00.187Z,97832.81
2023-02-01T20:03:30.408Z,97834.47
2023-02-01T20:06:02.178Z,97836.09
2023-02-01T20:08:31.001Z,97837.47
2023-02-01T20:10:59.549Z,97845.13
2023-02-01T20:13:28.389Z,97843.75
2023-02-01T20:15:59.525Z,97845.38
2023-02-01T20:18:30.374Z,97849.72
2023-02-01T20:21:00.069Z,97846.94
2023-02-01T20:23:30.316Z,97852.13
2023-02-01T20:26:04.040Z,97849.13
2023-02-01T20:28:33.643Z,97835.34
2023-02-01T20:31:03.253Z,97834.25
2023-02-01T20:33:33.846Z,97846.94
2023-02-01T20:36:02.544Z,97847.69
2023-02-01T20:38:31.525Z,97852.84
2023-02-01T20:41:08.105Z,97857.00
2023-02-01T20:43:37.397Z,97843.22
2023-02-01T20:46:08.798Z,97846.50
2023-02-01T20:48:39.094Z,97849.31
2023-02-01T20:51:07.864Z,97844.50
2023-02-01T20:53:36.572Z,97835.06
2023-02-01T20:56:06.079Z,97825.44
2023-02-01T20:58:35.403Z,97823.91
2023-02-01T21:01:05.511Z,97825.13
2023-02-01T21:03:35.087Z,97833.75
2023-02-01T21:06:07.490Z,97831.47
2023-02-01T21:08:36.756Z,97819.22
2023-02-01T21:11:09.182Z,97820.09
2023-02-01T21:13:44.017Z,97814.94
2023-02-01T21:16:15.377Z,97802.97
2023-02-01T21:18:44.294Z,97822.38
2023-02-01T21:21:17.137Z,97815.75
2023-02-01T21:23:47.643Z,97822.72
2023-02-01T21:26:19.632Z,97809.53
2023-02-01T21:28:49.286Z,97819.59
2023-02-01T21:31:18.585Z,97817.75
2023-02-01T21:33:47.698Z,97809.94
2023-02-01T21:36:19.859Z,97812.66
2023-02-01T21:38:51.202Z,97810.25
2023-02-01T21:41:38.394Z,97812.28
2023-02-01T21:44:07.642Z,97815.94
2023-02-01T21:46:36.321Z,97811.94
2023-02-01T21:49:07.225Z,97803.38
2023-02-01T21:51:38.753Z,97819.91
2023-02-01T21:54:08.931Z,97838.88
2023-02-01T21:56:38.553Z,97842.44
2023-02-01T21:59:07.720Z,97834.63
2023-02-01T22:01:36.334Z,97841.06
2023-02-01T22:04:05.117Z,97827.91
2023-02-01T22:06:39.430Z,97843.22
2023-02-01T22:09:08.826Z,97834.91
2023-02-01T22:11:37.443Z,97829.84
2023-02-01T22:14:06.063Z,97818.72
2023-02-01T22:16:34.778Z,97816.03
2023-02-01T22:19:04.676Z,97827.06
2023-02-01T22:21:33.416Z,97821.53
2023-02-01T22:24:03.689Z,97818.78
2023-02-01T22:26:32.674Z,97818.41
2023-02-01T22:29:01.393Z,97816.50
2023-02-01T22:31:30.419Z,97824.09
2023-02-01T22:33:59.106Z,97831.56
2023-02-01T22:36:27.906Z,97833.31
2023-02-01T22:38:58.184Z,97827.41
2023-02-01T22:41:28.354Z,97845.41
2023-02-01T22:43:56.854Z,97840.22
2023-02-01T22:46:26.445Z,97857.59
2023-02-01T22:48:55.217Z,97842.13
2023-02-01T22:51:26.777Z,97844.88
2023-02-01T22:53:57.899Z,97852.69
2023-02-01T22:56:31.729Z,97840.34
2023-02-01T22:59:03.249Z,97855.75
2023-02-01T23:01:33.117Z,97837.19
2023-02-01T23:04:07.377Z,97837.75
2023-02-01T23:06:36.612Z,97847.50
2023-02-01T23:09:11.282Z,97838.22
2023-02-01T23:11:42.293Z,97820.66
2023-02-01T23:14:12.801Z,97827.56
2023-02-01T23:16:41.880Z,97827.22
2023-02-01T23:19:10.512Z,97825.41
2023-02-01T23:21:39.559Z,97813.97
2023-02-01T23:24:10.808Z,97819.59
2023-02-01T23:26:42.474Z,97813.41
2023-02-01T23:29:19.240Z,97796.19
2023-02-01T23:31:47.893Z,97804.09
2023-02-01T23:34:16.565Z,97797.69
2023-02-01T23:36:45.403Z,97792.72
2023-02-01T23:39:14.102Z,97788.06
2023-02-01T23:41:44.106Z,97803.22
2023-02-01T23:44:12.781Z,97801.56
2023-02-01T23:46:47.017Z,97796.91
2023-02-01T23:49:18.321Z,97788.59
2023-02-01T23:51:51.592Z,97798.28
2023-02-01T23:54:24.139Z,97797.56
2023-02-01T23:56:55.262Z,97804.41
2023-02-01T23:59:26.635Z,97791.63
